createdAt,value
2022-10-05T00:00:24.334Z,78.26
2022-10-05T00:02:54.454Z,77.99
2022-10-05T00:05:28.247Z,77.21
2022-10-05T00:07:58.748Z,78.13
2022-10-05T00:10:30.268Z,77.75
2022-10-05T00:12:58.288Z,78.08
2022-10-05T00:15:26.180Z,77.85
2022-10-05T00:17:54.314Z,78.50
2022-10-05T00:20:25.091Z,78.91
2022-10-05T00:22:58.449Z,78.95
2022-10-05T00:25:28.180Z,78.78
2022-10-05T00:27:57.824Z,78.82
2022-10-05T00:30:27.996Z,78.73
2022-10-05T00:32:59.489Z,78.86
2022-10-05T00:35:29.447Z,79.17
2022-10-05T00:37:57.891Z,78.80
2022-10-05T00:40:37.978Z,78.75
2022-10-05T00:43:26.448Z,79.42
2022-10-05T00:46:01.225Z,78.93
2022-10-05T00:48:37.178Z,78.04
2022-10-05T00:51:17.336Z,77.76
2022-10-05T00:53:52.353Z,78.16
2022-10-05T00:56:49.762Z,78.32
2022-10-05T00:59:33.466Z,77.66
2022-10-05T01:02:11.310Z,77.67
2022-10-05T01:04:48.900Z,77.73
2022-10-05T01:07:28.361Z,77.99
2022-10-05T01:10:05.342Z,78.45
2022-10-05T01:12:44.028Z,78.48
2022-10-05T01:15:20.741Z,78.92
2022-10-05T01:17:55.624Z,79.42
2022-10-05T01:20:37.061Z,79.00
2022-10-05T01:23:27.313Z,78.78
2022-10-05T01:26:08.617Z,79.21
2022-10-05T01:28:42.204Z,79.53
2022-10-05T01:31:19.626Z,79.23
2022-10-05T01:33:53.658Z,79.05
2022-10-05T01:36:30.590Z,79.33
2022-10-05T01:39:06.163Z,79.05
2022-10-05T01:41:42.287Z,79.68
2022-10-05T01:44:16.163Z,79.49
2022-10-05T01:46:51.439Z,79.75
2022-10-05T01:49:36.970Z,79.68
2022-10-05T01:52:17.261Z,79.97
2022-10-05T01:54:58.821Z,79.51
2022-10-05T01:57:39.451Z,80.12
2022-10-05T02:00:10.968Z,80.21
2022-10-05T02:02:47.160Z,80.40
2022-10-05T02:05:19.852Z,80.55
2022-10-05T02:07:54.650Z,80.10
2022-10-05T02:10:27.090Z,80.16
2022-10-05T02:13:01.291Z,79.58
2022-10-05T02:15:39.598Z,79.80
2022-10-05T02:18:11.997Z,79.99
2022-10-05T02:20:43.464Z,80.35
2022-10-05T02:23:15.557Z,80.43
2022-10-05T02:25:48.210Z,80.65
2022-10-05T02:28:22.285Z,80.83
2022-10-05T02:30:55.746Z,80.73
2022-10-05T02:33:29.297Z,81.42
2022-10-05T02:36:03.319Z,81.13
2022-10-05T02:38:42.389Z,81.47
2022-10-05T02:41:22.599Z,81.68
2022-10-05T02:43:58.478Z,82.22
2022-10-05T02:46:35.416Z,81.88
2022-10-05T02:49:15.649Z,81.49
2022-10-05T02:51:52.092Z,80.88
2022-10-05T02:54:33.235Z,81.50
2022-10-05T02:57:06.149Z,81.26
2022-10-05T02:59:40.092Z,81.88
2022-10-05T03:02:19.957Z,81.44
2022-10-05T03:04:57.272Z,82.25
2022-10-05T03:07:30.389Z,82.04
2022-10-05T03:10:07.048Z,81.89
2022-10-05T03:12:50.879Z,82.04
2022-10-05T03:15:37.751Z,81.77
2022-10-05T03:18:13.935Z,81.88
2022-10-05T03:20:49.869Z,81.35
2022-10-05T03:23:30.555Z,81.98
2022-10-05T03:26:20.499Z,81.77
2022-10-05T03:28:59.877Z,81.86
2022-10-05T03:31:36.799Z,81.85
2022-10-05T03:34:12.472Z,82.24
2022-10-05T03:36:50.400Z,82.31
2022-10-05T03:39:28.233Z,82.08
2022-10-05T03:42:02.859Z,83.25
2022-10-05T03:44:41.864Z,83.02
2022-10-05T03:47:15.903Z,82.67
2022-10-05T03:49:59.238Z,82.90
2022-10-05T03:52:35.723Z,82.36
2022-10-05T03:55:10.551Z,82.58
2022-10-05T03:57:41.449Z,82.78
2022-10-05T04:00:16.575Z,83.27
2022-10-05T04:02:59.160Z,83.45
2022-10-05T04:05:33.020Z,83.37
2022-10-05T04:08:05.865Z,83.31
2022-10-05T04:10:40.954Z,83.58
2022-10-05T04:13:15.324Z,83.74
2022-10-05T04:15:51.540Z,83.67
2022-10-05T04:18:26.667Z,83.96
2022-10-05T04:21:01.184Z,83.82
2022-10-05T04:23:40.123Z,83.27
2022-10-05T04:26:13.405Z,82.85
2022-10-05T04:28:50.089Z,83.25
2022-10-05T04:31:29.997Z,82.88
2022-10-05T04:34:05.779Z,82.86
2022-10-05T04:36:43.177Z,83.30
2022-10-05T04:39:22.622Z,83.32
2022-10-05T04:42:02.276Z,83.53
2022-10-05T04:44:43.543Z,83.55
2022-10-05T04:47:27.009Z,83.97
2022-10-05T04:50:08.819Z,84.91
2022-10-05T04:52:44.705Z,85.27
2022-10-05T04:55:23.949Z,85.43
2022-10-05T04:58:03.475Z,86.13
2022-10-05T05:00:44.075Z,84.93
2022-10-05T05:03:30.346Z,84.56
2022-10-05T05:06:22.384Z,84.83
2022-10-05T05:09:13.935Z,84.49
2022-10-05T05:11:55.028Z,84.60
2022-10-05T05:14:45.318Z,84.76
2022-10-05T05:17:28.253Z,85.02
2022-10-05T05:20:05.224Z,84.93
2022-10-05T05:22:41.634Z,84.88
2022-10-05T05:25:36.823Z,84.75
2022-10-05T05:28:18.597Z,84.84
2022-10-05T05:30:53.534Z,84.56
2022-10-05T05:33:24.296Z,85.04
2022-10-05T05:36:26.875Z,84.91
2022-10-05T05:39:20.148Z,84.90
2022-10-05T05:41:59.068Z,85.02
2022-10-05T05:44:29.441Z,85.00
2022-10-05T05:47:04.916Z,85.04
2022-10-05T05:49:50.817Z,84.49
2022-10-05T05:52:25.380Z,84.46
2022-10-05T05:55:00.225Z,85.08
2022-10-05T05:57:34.500Z,85.40
2022-10-05T06:00:06.784Z,85.00
2022-10-05T06:02:54.965Z,85.05
2022-10-05T06:05:31.296Z,85.13
2022-10-05T06:08:07.325Z,84.79
2022-10-05T06:10:42.055Z,84.23
2022-10-05T06:13:19.655Z,84.32
2022-10-05T06:15:52.786Z,84.90
2022-10-05T06:18:22.849Z,84.41
2022-10-05T06:20:59.485Z,84.46
2022-10-05T06:23:35.186Z,84.53
2022-10-05T06:26:23.119Z,84.20
2022-10-05T06:28:57.327Z,84.23
2022-10-05T06:31:38.022Z,84.72
2022-10-05T06:34:17.941Z,85.31
2022-10-05T06:36:51.417Z,85.07
2022-10-05T06:39:45.252Z,85.06
2022-10-05T06:42:28.441Z,84.26
2022-10-05T06:45:20.177Z,84.10
2022-10-05T06:48:20.471Z,84.01
2022-10-05T06:51:11.506Z,84.08
2022-10-05T06:53:51.766Z,84.73
2022-10-05T06:56:27.793Z,85.38
2022-10-05T06:59:04.502Z,85.47
2022-10-05T07:01:48.103Z,84.83
2022-10-05T07:04:36.058Z,84.33
2022-10-05T07:07:14.760Z,83.84
2022-10-05T07:09:55.638Z,84.17
2022-10-05T07:12:42.659Z,83.28
2022-10-05T07:15:25.996Z,83.07
2022-10-05T07:18:07.699Z,83.14
2022-10-05T07:20:49.160Z,84.46
2022-10-05T07:23:28.910Z,85.86
2022-10-05T07:26:05.990Z,85.62
2022-10-05T07:28:40.549Z,85.32
2022-10-05T07:31:14.944Z,84.68
2022-10-05T07:33:52.817Z,84.06
2022-10-05T07:36:50.962Z,83.68
2022-10-05T07:39:55.259Z,81.87
2022-10-05T07:42:31.202Z,81.05
2022-10-05T07:45:09.439Z,82.17
2022-10-05T07:47:44.671Z,81.17
2022-10-05T07:50:22.926Z,80.96
2022-10-05T07:52:58.249Z,82.04
2022-10-05T07:55:28.618Z,81.63
2022-10-05T07:58:06.430Z,81.37
2022-10-05T08:00:52.655Z,81.10
2022-10-05T08:03:31.564Z,80.48
2022-10-05T08:06:02.257Z,80.41
2022-10-05T08:08:36.967Z,80.77
2022-10-05T08:11:15.611Z,81.21
2022-10-05T08:13:51.172Z,82.94
2022-10-05T08:16:20.011Z,82.60
2022-10-05T08:18:56.943Z,81.63
2022-10-05T08:21:35.001Z,80.29
2022-10-05T08:24:14.597Z,78.46
2022-10-05T08:26:48.980Z,77.02
2022-10-05T08:29:23.840Z,75.58
2022-10-05T08:31:58.197Z,75.38
2022-10-05T08:34:31.559Z,74.77
2022-10-05T08:37:05.105Z,75.60
2022-10-05T08:39:38.434Z,75.11
2022-10-05T08:42:36.829Z,74.83
2022-10-05T08:45:36.319Z,74.97
2022-10-05T08:48:40.345Z,74.22
2022-10-05T08:51:21.679Z,75.76
2022-10-05T09:02:20.577Z,75.22
2022-10-05T09:05:10.280Z,76.16
2022-10-05T09:08:12.533Z,77.83
2022-10-05T09:11:05.012Z,76.98
2022-10-05T09:14:06.470Z,74.70
2022-10-05T09:16:49.633Z,75.21
2022-10-05T09:19:41.081Z,74.11
2022-10-05T09:22:16.272Z,74.37
2022-10-05T09:24:59.508Z,72.49
2022-10-05T09:27:38.853Z,71.22
2022-10-05T09:30:22.397Z,71.63
2022-10-05T09:33:27.046Z,70.16
2022-10-05T09:36:15.723Z,70.12
2022-10-05T09:39:20.115Z,69.96
2022-10-05T09:42:24.272Z,71.05
2022-10-05T09:45:36.912Z,71.96
2022-10-05T09:48:35.377Z,71.34
2022-10-05T09:51:35.880Z,71.74
2022-10-05T09:54:40.980Z,71.74
2022-10-05T09:57:37.420Z,71.64
2022-10-05T10:00:24.136Z,67.97
2022-10-05T10:03:28.884Z,69.36
2022-10-05T10:06:13.805Z,68.66
2022-10-05T10:08:53.849Z,68.41
2022-10-05T10:11:51.611Z,66.84
2022-10-05T10:15:09.694Z,66.98
2022-10-05T10:18:02.703Z,68.49
2022-10-05T10:20:46.007Z,68.88
2022-10-05T10:23:28.658Z,69.63
2022-10-05T10:26:27.937Z,67.57
2022-10-05T10:29:22.972Z,70.57
2022-10-05T10:35:09.181Z,67.81
2022-10-05T10:37:40.638Z,68.49
2022-10-05T10:40:31.345Z,67.70
2022-10-05T10:43:26.612Z,66.11
2022-10-05T10:46:03.196Z,65.18
2022-10-05T10:48:58.672Z,61.94
2022-10-05T10:51:53.771Z,62.92
2022-10-05T10:54:38.277Z,62.80
2022-10-05T10:57:10.438Z,62.47
2022-10-05T11:00:15.763Z,64.77
2022-10-05T11:03:26.808Z,63.45
2022-10-05T11:06:17.153Z,62.72
2022-10-05T11:09:12.447Z,65.74
2022-10-05T11:12:14.557Z,66.48
2022-10-05T11:14:59.205Z,64.74
2022-10-05T11:17:41.629Z,63.41
2022-10-05T11:20:33.131Z,63.83
2022-10-05T11:23:27.742Z,62.46
2022-10-05T11:26:15.610Z,62.81
2022-10-05T11:29:17.342Z,63.33
2022-10-05T11:32:22.030Z,63.51
2022-10-05T11:35:21.096Z,64.48
2022-10-05T11:38:08.763Z,64.95
2022-10-05T11:41:15.918Z,63.37
2022-10-05T11:44:23.233Z,62.07
2022-10-05T11:46:59.511Z,62.88
2022-10-05T11:49:35.307Z,63.60
2022-10-05T11:52:14.103Z,62.97
2022-10-05T11:55:14.859Z,62.62
2022-10-05T11:57:50.207Z,63.88
2022-10-05T12:00:21.972Z,61.49
2022-10-05T12:03:13.125Z,60.16
2022-10-05T12:05:54.348Z,63.47
2022-10-05T12:08:34.409Z,62.20
2022-10-05T12:11:10.175Z,61.90
2022-10-05T12:13:43.344Z,63.80
2022-10-05T12:16:18.790Z,62.35
2022-10-05T12:19:01.328Z,62.02
2022-10-05T12:21:45.636Z,63.27
2022-10-05T12:24:26.506Z,61.48
2022-10-05T12:27:02.185Z,61.95
2022-10-05T12:29:41.673Z,62.18
2022-10-05T12:32:17.187Z,64.28
2022-10-05T12:35:01.459Z,60.94
2022-10-05T12:37:42.319Z,62.22
2022-10-05T12:40:22.336Z,60.66
2022-10-05T12:42:58.821Z,64.18
2022-10-05T12:45:36.392Z,63.06
2022-10-05T12:48:42.251Z,59.13
2022-10-05T12:51:17.500Z,62.37
2022-10-05T12:53:56.840Z,64.89
2022-10-05T12:56:35.090Z,65.79
2022-10-05T12:59:14.390Z,62.71
2022-10-05T13:01:48.427Z,60.91
2022-10-05T13:04:29.113Z,62.20
2022-10-05T13:07:12.185Z,61.88
2022-10-05T13:09:47.497Z,60.25
2022-10-05T13:12:36.085Z,60.37
2022-10-05T13:15:13.750Z,60.67
2022-10-05T13:17:51.413Z,60.17
2022-10-05T13:20:28.732Z,60.64
2022-10-05T13:23:02.746Z,59.59
2022-10-05T13:25:35.191Z,58.87
2022-10-05T13:28:16.735Z,59.28
2022-10-05T13:30:53.969Z,59.27
2022-10-05T13:33:31.623Z,59.08
2022-10-05T13:36:06.812Z,58.97
2022-10-05T13:38:48.120Z,58.06
2022-10-05T13:41:24.949Z,57.73
2022-10-05T13:44:04.812Z,55.74
2022-10-05T13:46:39.417Z,57.70
2022-10-05T13:49:21.558Z,55.98
2022-10-05T13:51:59.723Z,57.11
2022-10-05T13:54:37.899Z,56.79
2022-10-05T13:57:19.243Z,56.14
2022-10-05T13:59:54.450Z,56.99
2022-10-05T14:02:28.251Z,57.73
2022-10-05T14:05:01.122Z,58.22
2022-10-05T14:07:35.013Z,57.00
2022-10-05T14:10:04.761Z,57.51
2022-10-05T14:12:40.935Z,57.71
2022-10-05T14:15:23.328Z,56.98
2022-10-05T14:17:52.785Z,57.53
2022-10-05T14:20:25.522Z,57.96
2022-10-05T14:23:00.677Z,57.03
2022-10-05T14:25:29.742Z,58.19
2022-10-05T14:28:02.185Z,59.01
2022-10-05T14:30:31.151Z,59.56
2022-10-05T14:33:10.084Z,58.92
2022-10-05T14:35:49.078Z,58.15
2022-10-05T14:38:25.727Z,58.81
2022-10-05T14:41:15.960Z,58.18
2022-10-05T14:43:52.665Z,58.15
2022-10-05T14:46:28.589Z,58.54
2022-10-05T14:49:18.121Z,59.45
2022-10-05T14:51:46.150Z,58.67
2022-10-05T14:54:30.561Z,59.61
2022-10-05T14:57:07.353Z,59.55
2022-10-05T15:00:01.110Z,59.69
2022-10-05T15:03:03.574Z,61.38
2022-10-05T15:05:36.858Z,61.87
2022-10-05T15:08:16.626Z,61.18
2022-10-05T15:10:53.760Z,60.41
2022-10-05T15:13:25.263Z,60.44
2022-10-05T15:15:55.616Z,60.41
2022-10-05T15:18:39.557Z,59.83
2022-10-05T15:21:37.355Z,60.74
2022-10-05T15:24:10.309Z,62.34
2022-10-05T15:26:51.766Z,59.68
2022-10-05T15:29:47.304Z,60.12
2022-10-05T15:32:30.131Z,61.24
2022-10-05T15:35:20.308Z,62.11
2022-10-05T15:37:55.845Z,64.38
2022-10-05T15:40:37.132Z,63.00
2022-10-05T15:43:13.578Z,62.32
2022-10-05T15:45:53.747Z,63.16
2022-10-05T15:48:29.934Z,64.45
2022-10-05T15:51:07.006Z,64.27
2022-10-05T15:53:43.386Z,64.31
2022-10-05T15:56:20.223Z,64.46
2022-10-05T15:58:55.509Z,65.10
2022-10-05T16:01:40.380Z,65.95
2022-10-05T16:04:15.653Z,65.19
2022-10-05T16:07:12.160Z,64.97
2022-10-05T16:09:50.116Z,66.03
2022-10-05T16:12:31.204Z,65.30
2022-10-05T16:15:16.870Z,65.90
2022-10-05T16:18:02.014Z,67.91
2022-10-05T16:20:42.313Z,67.43
2022-10-05T16:23:24.275Z,67.73
2022-10-05T16:26:04.695Z,67.27
2022-10-05T16:28:45.195Z,69.56
2022-10-05T16:31:20.038Z,69.15
2022-10-05T16:34:00.160Z,69.41
2022-10-05T16:36:44.722Z,69.70
2022-10-05T16:39:20.939Z,69.21
2022-10-05T16:41:57.880Z,68.71
2022-10-05T16:44:39.448Z,69.16
2022-10-05T16:47:31.565Z,69.91
2022-10-05T16:50:10.675Z,70.25
2022-10-05T16:52:43.541Z,72.36
2022-10-05T16:55:15.803Z,73.11
2022-10-05T16:57:48.453Z,74.23
2022-10-05T17:00:22.085Z,74.91
2022-10-05T17:03:09.919Z,75.66
2022-10-05T17:06:03.973Z,75.77
2022-10-05T17:08:50.323Z,75.35
2022-10-05T17:11:30.879Z,75.83
2022-10-05T17:14:13.898Z,76.10
2022-10-05T17:16:52.590Z,76.43
2022-10-05T17:19:38.416Z,76.34
2022-10-05T17:22:14.010Z,77.02
2022-10-05T17:24:53.692Z,77.34
2022-10-05T17:27:32.420Z,77.42
2022-10-05T17:30:37.062Z,78.50
2022-10-05T17:33:20.572Z,79.23
2022-10-05T17:35:58.301Z,78.80
2022-10-05T17:38:51.841Z,79.24
2022-10-05T17:41:29.601Z,79.16
2022-10-05T17:44:21.018Z,80.11
2022-10-05T17:46:51.029Z,79.38
2022-10-05T17:50:08.040Z,80.05
2022-10-05T17:52:58.752Z,79.49
2022-10-05T17:55:45.114Z,80.94
2022-10-05T17:59:02.034Z,81.63
2022-10-05T18:01:33.933Z,80.69
2022-10-05T18:04:30.515Z,81.63
2022-10-05T18:07:16.341Z,81.44
2022-10-05T18:10:02.239Z,82.24
2022-10-05T18:12:51.039Z,82.45
2022-10-05T18:15:48.482Z,83.15
2022-10-05T18:18:55.833Z,82.98
2022-10-05T18:21:34.200Z,82.89
2022-10-05T18:24:18.279Z,83.43
2022-10-05T18:27:00.102Z,84.69
2022-10-05T18:30:02.179Z,85.20
2022-10-05T18:32:50.266Z,85.38
2022-10-05T18:35:24.134Z,85.58
2022-10-05T18:38:03.702Z,86.29
2022-10-05T18:40:43.304Z,86.65
2022-10-05T18:43:29.096Z,87.11
2022-10-05T18:46:08.237Z,87.24
2022-10-05T18:48:46.053Z,87.37
2022-10-05T18:51:22.632Z,87.70
2022-10-05T18:54:05.933Z,88.11
2022-10-05T18:56:38.980Z,87.87
2022-10-05T18:59:32.128Z,89.19
2022-10-05T19:02:12.574Z,88.57
2022-10-05T19:04:55.699Z,88.79
2022-10-05T19:07:33.596Z,89.44
2022-10-05T19:10:10.493Z,89.33
2022-10-05T19:12:51.715Z,89.63
2022-10-05T19:15:27.645Z,89.50
2022-10-05T19:18:18.598Z,90.12
2022-10-05T19:20:53.435Z,90.42
2022-10-05T19:23:35.465Z,90.75
2022-10-05T19:26:12.595Z,91.26
2022-10-05T19:28:54.988Z,91.41
2022-10-05T19:31:35.816Z,91.65
2022-10-05T19:34:19.172Z,91.91
2022-10-05T19:36:59.285Z,91.87
2022-10-05T19:39:38.406Z,92.08
2022-10-05T19:42:39.297Z,92.85
2022-10-05T19:45:18.898Z,92.05
2022-10-05T19:48:00.296Z,92.52
2022-10-05T19:50:30.356Z,92.31
2022-10-05T19:53:07.350Z,92.91
2022-10-05T19:55:38.329Z,92.72
2022-10-05T19:58:19.646Z,93.00
2022-10-05T20:00:55.612Z,92.94
2022-10-05T20:03:29.473Z,92.77
2022-10-05T20:05:59.104Z,92.64
2022-10-05T20:08:31.945Z,92.87
2022-10-05T20:11:09.096Z,92.95
2022-10-05T20:13:39.407Z,92.37
2022-10-05T20:16:27.819Z,93.69
2022-10-05T20:19:14.908Z,94.50
2022-10-05T20:21:48.862Z,94.05
2022-10-05T20:24:18.777Z,93.35
2022-10-05T20:27:05.325Z,93.03
2022-10-05T20:29:36.484Z,92.49
2022-10-05T20:32:08.676Z,92.97
2022-10-05T20:34:41.396Z,93.47
2022-10-05T20:37:10.580Z,94.04
2022-10-05T20:39:39.263Z,93.95
2022-10-05T20:42:07.845Z,94.62
2022-10-05T20:44:36.290Z,94.42
2022-10-05T20:47:04.742Z,94.37
2022-10-05T20:49:45.424Z,94.65
2022-10-05T20:52:15.131Z,94.69
2022-10-05T20:54:43.465Z,94.76
2022-10-05T20:57:12.439Z,94.66
2022-10-05T20:59:40.780Z,94.68
2022-10-05T21:02:09.867Z,94.63
2022-10-05T21:04:41.905Z,94.88
2022-10-05T21:07:11.444Z,94.80
2022-10-05T21:09:44.621Z,94.82
2022-10-05T21:12:18.648Z,95.14
2022-10-05T21:14:47.547Z,94.95
2022-10-05T21:17:15.500Z,94.91
2022-10-05T21:19:43.506Z,94.98
2022-10-05T21:22:12.838Z,95.38
2022-10-05T21:24:41.522Z,95.52
2022-10-05T21:27:10.195Z,94.42
2022-10-05T21:29:41.049Z,94.30
2022-10-05T21:32:11.770Z,95.49
2022-10-05T21:34:40.011Z,97.23
2022-10-05T21:37:08.566Z,98.10
2022-10-05T21:39:37.948Z,98.47
2022-10-05T21:42:05.986Z,97.79
2022-10-05T21:44:34.013Z,96.74
2022-10-05T21:47:02.450Z,96.56
2022-10-05T21:49:31.203Z,96.20
2022-10-05T21:52:01.135Z,96.14
2022-10-05T21:54:29.156Z,95.99
2022-10-05T21:57:00.091Z,95.76
2022-10-05T21:59:32.023Z,96.50
2022-10-05T22:01:59.974Z,97.19
2022-10-05T22:04:27.976Z,96.91
2022-10-05T22:06:57.075Z,95.65
2022-10-05T22:09:25.012Z,95.04
2022-10-05T22:11:53.175Z,94.70
2022-10-05T22:14:22.547Z,94.15
2022-10-05T22:16:50.634Z,93.82
2022-10-05T22:19:20.953Z,93.35
2022-10-05T22:21:48.935Z,93.47
2022-10-05T22:24:17.013Z,93.97
2022-10-05T22:26:48.264Z,94.18
2022-10-05T22:29:17.884Z,94.02
2022-10-05T22:31:48.868Z,93.60
2022-10-05T22:34:17.947Z,93.71
2022-10-05T22:36:45.927Z,94.51
2022-10-05T22:39:13.932Z,94.86
2022-10-05T22:41:41.883Z,95.32
2022-10-05T22:44:10.079Z,94.82
2022-10-05T22:46:38.408Z,94.76
2022-10-05T22:49:07.945Z,94.29
2022-10-05T22:51:36.014Z,93.85
2022-10-05T22:54:03.952Z,93.36
2022-10-05T22:56:31.935Z,93.34
2022-10-05T22:58:59.894Z,93.65
2022-10-05T23:01:28.189Z,93.80
2022-10-05T23:03:57.307Z,93.76
2022-10-05T23:06:27.526Z,95.15
2022-10-05T23:08:56.069Z,95.87
2022-10-05T23:11:26.003Z,95.67
2022-10-05T23:13:55.762Z,96.44
2022-10-05T23:16:26.759Z,96.88
2022-10-05T23:18:55.416Z,96.87
2022-10-05T23:21:25.133Z,96.11
2022-10-05T23:23:54.539Z,95.54
2022-10-05T23:26:23.823Z,95.01
2022-10-05T23:28:51.954Z,94.82
2022-10-05T23:31:22.105Z,95.07
2022-10-05T23:33:50.222Z,95.52
2022-10-05T23:36:19.952Z,94.93
2022-10-05T23:38:48.404Z,94.31
2022-10-05T23:41:19.613Z,94.49
2022-10-05T23:43:48.185Z,94.56
2022-10-05T23:46:17.631Z,94.43
2022-10-05T23:48:45.707Z,94.14
2022-10-05T23:51:15.569Z,93.94
2022-10-05T23:53:43.514Z,94.48
2022-10-05T23:56:11.664Z,94.99
2022-10-05T23:58:41.240Z,95.12
